sensor_id;sensor_type;location;lat;lon;timestamp;temperature;humidity
44729;DHT22;30457;53.590;9.922;2024-01-11T00:01:13;2.80;61.20
44729;DHT22;30457;53.590;9.922;2024-01-11T00:05:39;2.80;61.30
44729;DHT22;30457;53.590;9.922;2024-01-11T00:10:05;2.90;61.20
44729;DHT22;30457;53.590;9.922;2024-01-11T00:14:31;2.90;61.30
44729;DHT22;30457;53.590;9.922;2024-01-11T00:18:56;2.90;61.30
44729;DHT22;30457;53.590;9.922;2024-01-11T00:23:22;2.90;61.30
44729;DHT22;30457;53.590;9.922;2024-01-11T00:27:48;2.90;61.30
44729;DHT22;30457;53.590;9.922;2024-01-11T00:32:14;2.90;61.30
44729;DHT22;30457;53.590;9.922;2024-01-11T00:36:40;2.90;61.50
44729;DHT22;30457;53.590;9.922;2024-01-11T00:41:06;3.00;61.60
44729;DHT22;30457;53.590;9.922;2024-01-11T00:45:31;3.00;61.60
44729;DHT22;30457;53.590;9.922;2024-01-11T00:49:57;3.00;61.50
44729;DHT22;30457;53.590;9.922;2024-01-11T00:54:23;3.00;61.40
44729;DHT22;30457;53.590;9.922;2024-01-11T00:58:50;3.00;61.50
44729;DHT22;30457;53.590;9.922;2024-01-11T01:03:15;3.00;61.60
44729;DHT22;30457;53.590;9.922;2024-01-11T01:07:41;3.00;61.50
44729;DHT22;30457;53.590;9.922;2024-01-11T01:12:07;3.00;61.40
44729;DHT22;30457;53.590;9.922;2024-01-11T01:16:32;3.00;61.40
44729;DHT22;30457;53.590;9.922;2024-01-11T01:20:58;3.00;61.60
44729;DHT22;30457;53.590;9.922;2024-01-11T01:25:23;2.90;61.50
44729;DHT22;30457;53.590;9.922;2024-01-11T01:29:49;2.90;61.50
44729;DHT22;30457;53.590;9.922;2024-01-11T01:34:15;2.90;61.70
44729;DHT22;30457;53.590;9.922;2024-01-11T01:38:40;2.90;61.60
44729;DHT22;30457;53.590;9.922;2024-01-11T01:43:09;2.80;61.60
44729;DHT22;30457;53.590;9.922;2024-01-11T01:47:36;2.80;61.70
44729;DHT22;30457;53.590;9.922;2024-01-11T01:52:03;2.80;61.80
44729;DHT22;30457;53.590;9.922;2024-01-11T01:56:28;2.80;61.70
44729;DHT22;30457;53.590;9.922;2024-01-11T02:00:54;2.80;61.70
44729;DHT22;30457;53.590;9.922;2024-01-11T02:05:20;2.80;61.80
44729;DHT22;30457;53.590;9.922;2024-01-11T02:09:46;2.80;61.90
44729;DHT22;30457;53.590;9.922;2024-01-11T02:14:12;2.80;62.20
44729;DHT22;30457;53.590;9.922;2024-01-11T02:18:38;2.70;62.00
44729;DHT22;30457;53.590;9.922;2024-01-11T02:23:06;2.80;62.20
44729;DHT22;30457;53.590;9.922;2024-01-11T02:27:49;2.70;62.30
44729;DHT22;30457;53.590;9.922;2024-01-11T02:32:15;2.80;62.30
44729;DHT22;30457;53.590;9.922;2024-01-11T02:36:41;2.80;62.40
44729;DHT22;30457;53.590;9.922;2024-01-11T02:41:07;2.80;62.40
44729;DHT22;30457;53.590;9.922;2024-01-11T02:45:33;2.80;62.30
44729;DHT22;30457;53.590;9.922;2024-01-11T02:49:58;2.70;62.40
44729;DHT22;30457;53.590;9.922;2024-01-11T02:54:24;2.80;62.60
44729;DHT22;30457;53.590;9.922;2024-01-11T02:58:50;2.80;62.50
44729;DHT22;30457;53.590;9.922;2024-01-11T03:03:15;2.80;62.60
44729;DHT22;30457;53.590;9.922;2024-01-11T03:07:41;2.80;62.70
44729;DHT22;30457;53.590;9.922;2024-01-11T03:12:06;2.80;62.80
44729;DHT22;30457;53.590;9.922;2024-01-11T03:16:32;2.90;62.80
44729;DHT22;30457;53.590;9.922;2024-01-11T03:20:57;2.90;62.80
44729;DHT22;30457;53.590;9.922;2024-01-11T03:25:23;2.80;62.90
44729;DHT22;30457;53.590;9.922;2024-01-11T03:29:49;2.90;63.20
44729;DHT22;30457;53.590;9.922;2024-01-11T03:34:15;2.80;63.10
44729;DHT22;30457;53.590;9.922;2024-01-11T03:38:40;2.80;63.30
44729;DHT22;30457;53.590;9.922;2024-01-11T03:43:06;2.80;63.10
44729;DHT22;30457;53.590;9.922;2024-01-11T03:47:31;2.90;63.40
44729;DHT22;30457;53.590;9.922;2024-01-11T03:51:57;2.90;63.30
44729;DHT22;30457;53.590;9.922;2024-01-11T03:56:23;2.90;63.50
44729;DHT22;30457;53.590;9.922;2024-01-11T04:00:48;2.90;63.50
44729;DHT22;30457;53.590;9.922;2024-01-11T04:05:14;2.90;63.30
44729;DHT22;30457;53.590;9.922;2024-01-11T04:09:40;3.00;63.30
44729;DHT22;30457;53.590;9.922;2024-01-11T04:14:06;2.90;63.50
44729;DHT22;30457;53.590;9.922;2024-01-11T04:18:32;3.00;63.40
44729;DHT22;30457;53.590;9.922;2024-01-11T04:22:58;3.00;63.20
44729;DHT22;30457;53.590;9.922;2024-01-11T04:27:24;3.00;63.10
44729;DHT22;30457;53.590;9.922;2024-01-11T04:31:49;3.00;63.20
44729;DHT22;30457;53.590;9.922;2024-01-11T04:36:15;3.00;63.10
44729;DHT22;30457;53.590;9.922;2024-01-11T04:40:40;3.00;63.10
44729;DHT22;30457;53.590;9.922;2024-01-11T04:45:06;3.10;62.90
44729;DHT22;30457;53.590;9.922;2024-01-11T04:49:32;3.10;63.30
44729;DHT22;30457;53.590;9.922;2024-01-11T04:53:57;3.10;62.70
44729;DHT22;30457;53.590;9.922;2024-01-11T04:58:23;3.10;62.60
44729;DHT22;30457;53.590;9.922;2024-01-11T05:02:48;3.10;62.60
44729;DHT22;30457;53.590;9.922;2024-01-11T05:07:14;3.10;62.50
44729;DHT22;30457;53.590;9.922;2024-01-11T05:11:39;3.10;62.40
44729;DHT22;30457;53.590;9.922;2024-01-11T05:16:05;3.10;62.40
44729;DHT22;30457;53.590;9.922;2024-01-11T05:20:31;3.10;62.30
44729;DHT22;30457;53.590;9.922;2024-01-11T05:24:56;3.10;62.30
44729;DHT22;30457;53.590;9.922;2024-01-11T05:29:22;3.00;62.30
44729;DHT22;30457;53.590;9.922;2024-01-11T05:33:47;3.00;62.40
44729;DHT22;30457;53.590;9.922;2024-01-11T05:38:13;3.00;62.40
44729;DHT22;30457;53.590;9.922;2024-01-11T05:42:38;3.00;62.70
44729;DHT22;30457;53.590;9.922;2024-01-11T05:47:04;3.00;62.80
44729;DHT22;30457;53.590;9.922;2024-01-11T05:51:30;3.00;62.90
44729;DHT22;30457;53.590;9.922;2024-01-11T05:55:55;3.00;63.30
44729;DHT22;30457;53.590;9.922;2024-01-11T06:00:21;3.00;63.20
44729;DHT22;30457;53.590;9.922;2024-01-11T06:04:48;3.00;63.40
44729;DHT22;30457;53.590;9.922;2024-01-11T06:09:14;3.00;63.40
44729;DHT22;30457;53.590;9.922;2024-01-11T06:13:41;3.10;63.40
44729;DHT22;30457;53.590;9.922;2024-01-11T06:18:07;3.10;63.40
44729;DHT22;30457;53.590;9.922;2024-01-11T06:22:32;3.20;63.50
44729;DHT22;30457;53.590;9.922;2024-01-11T06:26:58;3.10;63.30
44729;DHT22;30457;53.590;9.922;2024-01-11T06:31:23;3.20;63.40
44729;DHT22;30457;53.590;9.922;2024-01-11T06:35:49;3.20;63.40
44729;DHT22;30457;53.590;9.922;2024-01-11T06:40:14;3.20;63.70
44729;DHT22;30457;53.590;9.922;2024-01-11T06:44:40;3.20;63.70
44729;DHT22;30457;53.590;9.922;2024-01-11T06:49:05;3.20;63.80
44729;DHT22;30457;53.590;9.922;2024-01-11T06:53:31;3.30;63.90
44729;DHT22;30457;53.590;9.922;2024-01-11T06:57:57;3.30;64.00
44729;DHT22;30457;53.590;9.922;2024-01-11T07:02:23;3.30;64.00
44729;DHT22;30457;53.590;9.922;2024-01-11T07:06:48;3.40;64.10
44729;DHT22;30457;53.590;9.922;2024-01-11T07:11:14;3.40;64.00
44729;DHT22;30457;53.590;9.922;2024-01-11T07:15:39;3.40;64.10
44729;DHT22;30457;53.590;9.922;2024-01-11T07:20:06;3.50;64.00
44729;DHT22;30457;53.590;9.922;2024-01-11T07:24:31;3.50;64.10
44729;DHT22;30457;53.590;9.922;2024-01-11T07:29:02;3.50;64.10
44729;DHT22;30457;53.590;9.922;2024-01-11T07:33:28;3.50;64.10
44729;DHT22;30457;53.590;9.922;2024-01-11T07:37:54;3.60;64.20
44729;DHT22;30457;53.590;9.922;2024-01-11T07:42:20;3.60;64.20
44729;DHT22;30457;53.590;9.922;2024-01-11T07:46:45;3.60;64.10
44729;DHT22;30457;53.590;9.922;2024-01-11T07:51:11;3.70;64.20
44729;DHT22;30457;53.590;9.922;2024-01-11T07:55:37;3.70;64.10
44729;DHT22;30457;53.590;9.922;2024-01-11T08:00:08;3.70;64.30
44729;DHT22;30457;53.590;9.922;2024-01-11T08:04:40;3.70;64.30
44729;DHT22;30457;53.590;9.922;2024-01-11T08:09:06;3.80;64.40
44729;DHT22;30457;53.590;9.922;2024-01-11T08:13:31;3.80;64.40
44729;DHT22;30457;53.590;9.922;2024-01-11T08:17:57;3.80;64.50
44729;DHT22;30457;53.590;9.922;2024-01-11T08:22:23;3.80;64.50
44729;DHT22;30457;53.590;9.922;2024-01-11T08:26:49;3.90;64.50
44729;DHT22;30457;53.590;9.922;2024-01-11T08:31:15;3.90;64.40
44729;DHT22;30457;53.590;9.922;2024-01-11T08:35:40;4.00;64.50
44729;DHT22;30457;53.590;9.922;2024-01-11T08:40:07;4.00;64.20
44729;DHT22;30457;53.590;9.922;2024-01-11T08:44:34;4.00;64.20
44729;DHT22;30457;53.590;9.922;2024-01-11T08:49:01;4.10;64.50
44729;DHT22;30457;53.590;9.922;2024-01-11T08:53:28;4.10;64.60
44729;DHT22;30457;53.590;9.922;2024-01-11T08:57:54;4.20;64.60
44729;DHT22;30457;53.590;9.922;2024-01-11T09:02:20;4.20;64.50
44729;DHT22;30457;53.590;9.922;2024-01-11T09:06:45;4.30;64.40
44729;DHT22;30457;53.590;9.922;2024-01-11T09:11:11;4.30;64.20
44729;DHT22;30457;53.590;9.922;2024-01-11T09:15:37;4.40;64.30
44729;DHT22;30457;53.590;9.922;2024-01-11T09:20:02;4.40;64.10
44729;DHT22;30457;53.590;9.922;2024-01-11T09:24:28;4.40;64.10
44729;DHT22;30457;53.590;9.922;2024-01-11T09:28:54;4.50;64.10
44729;DHT22;30457;53.590;9.922;2024-01-11T09:33:19;4.50;63.90
44729;DHT22;30457;53.590;9.922;2024-01-11T09:37:45;4.60;64.00
44729;DHT22;30457;53.590;9.922;2024-01-11T09:42:11;4.60;64.00
44729;DHT22;30457;53.590;9.922;2024-01-11T09:46:38;4.70;64.00
44729;DHT22;30457;53.590;9.922;2024-01-11T09:51:10;4.70;64.00
44729;DHT22;30457;53.590;9.922;2024-01-11T09:55:38;4.70;64.10
44729;DHT22;30457;53.590;9.922;2024-01-11T10:00:05;4.80;65.00
44729;DHT22;30457;53.590;9.922;2024-01-11T10:04:33;4.90;64.20
44729;DHT22;30457;53.590;9.922;2024-01-11T10:08:58;4.90;64.40
44729;DHT22;30457;53.590;9.922;2024-01-11T10:13:28;5.00;64.30
44729;DHT22;30457;53.590;9.922;2024-01-11T10:17:54;5.00;64.30
44729;DHT22;30457;53.590;9.922;2024-01-11T10:22:20;5.10;64.30
44729;DHT22;30457;53.590;9.922;2024-01-11T10:26:45;5.10;64.10
44729;DHT22;30457;53.590;9.922;2024-01-11T10:31:12;5.10;64.10
44729;DHT22;30457;53.590;9.922;2024-01-11T10:35:37;5.20;64.10
44729;DHT22;30457;53.590;9.922;2024-01-11T10:40:05;5.20;64.20
44729;DHT22;30457;53.590;9.922;2024-01-11T10:44:45;5.30;64.20
44729;DHT22;30457;53.590;9.922;2024-01-11T10:49:17;5.30;64.20
44729;DHT22;30457;53.590;9.922;2024-01-11T10:53:44;5.40;64.10
44729;DHT22;30457;53.590;9.922;2024-01-11T10:58:11;5.40;64.10
44729;DHT22;30457;53.590;9.922;2024-01-11T11:02:37;5.50;64.10
44729;DHT22;30457;53.590;9.922;2024-01-11T11:07:04;5.50;64.10
44729;DHT22;30457;53.590;9.922;2024-01-11T11:11:33;5.50;63.80
44729;DHT22;30457;53.590;9.922;2024-01-11T11:15:59;5.60;63.80
44729;DHT22;30457;53.590;9.922;2024-01-11T11:20:26;5.50;63.80
44729;DHT22;30457;53.590;9.922;2024-01-11T11:25:11;5.60;63.70
44729;DHT22;30457;53.590;9.922;2024-01-11T11:29:49;5.60;63.60
44729;DHT22;30457;53.590;9.922;2024-01-11T11:34:15;5.60;63.50
44729;DHT22;30457;53.590;9.922;2024-01-11T11:38:44;5.60;63.50
44729;DHT22;30457;53.590;9.922;2024-01-11T11:43:10;5.60;63.70
44729;DHT22;30457;53.590;9.922;2024-01-11T11:47:36;5.60;63.50
44729;DHT22;30457;53.590;9.922;2024-01-11T11:52:04;5.60;63.60
44729;DHT22;30457;53.590;9.922;2024-01-11T11:56:30;5.60;63.60
44729;DHT22;30457;53.590;9.922;2024-01-11T12:00:57;5.60;63.70
44729;DHT22;30457;53.590;9.922;2024-01-11T12:05:23;5.60;63.80
44729;DHT22;30457;53.590;9.922;2024-01-11T12:09:50;5.60;63.70
44729;DHT22;30457;53.590;9.922;2024-01-11T12:14:16;5.70;63.70
44729;DHT22;30457;53.590;9.922;2024-01-11T12:18:42;5.70;63.70
44729;DHT22;30457;53.590;9.922;2024-01-11T12:23:08;5.60;63.70
44729;DHT22;30457;53.590;9.922;2024-01-11T12:27:34;5.70;63.70
44729;DHT22;30457;53.590;9.922;2024-01-11T12:32:00;5.70;63.60
44729;DHT22;30457;53.590;9.922;2024-01-11T12:36:25;5.80;63.80
44729;DHT22;30457;53.590;9.922;2024-01-11T12:40:51;5.80;63.90
44729;DHT22;30457;53.590;9.922;2024-01-11T12:45:17;5.80;63.80
44729;DHT22;30457;53.590;9.922;2024-01-11T12:49:46;5.80;64.00
44729;DHT22;30457;53.590;9.922;2024-01-11T12:54:13;5.90;64.10
44729;DHT22;30457;53.590;9.922;2024-01-11T12:58:44;5.90;64.10
44729;DHT22;30457;53.590;9.922;2024-01-11T13:03:15;6.00;64.20
44729;DHT22;30457;53.590;9.922;2024-01-11T13:07:40;6.00;64.30
44729;DHT22;30457;53.590;9.922;2024-01-11T13:12:06;6.10;64.40
44729;DHT22;30457;53.590;9.922;2024-01-11T13:16:32;6.10;64.30
44729;DHT22;30457;53.590;9.922;2024-01-11T13:20:58;6.20;64.30
44729;DHT22;30457;53.590;9.922;2024-01-11T13:25:24;6.20;64.10
44729;DHT22;30457;53.590;9.922;2024-01-11T13:29:49;6.30;64.20
44729;DHT22;30457;53.590;9.922;2024-01-11T13:34:15;6.30;64.10
44729;DHT22;30457;53.590;9.922;2024-01-11T13:38:40;6.30;64.00
44729;DHT22;30457;53.590;9.922;2024-01-11T13:43:06;6.40;64.00
44729;DHT22;30457;53.590;9.922;2024-01-11T13:47:32;6.40;63.90
44729;DHT22;30457;53.590;9.922;2024-01-11T13:51:57;6.40;63.90
44729;DHT22;30457;53.590;9.922;2024-01-11T13:56:23;6.50;63.90
44729;DHT22;30457;53.590;9.922;2024-01-11T14:00:48;6.50;63.80
44729;DHT22;30457;53.590;9.922;2024-01-11T14:05:14;6.50;63.70
44729;DHT22;30457;53.590;9.922;2024-01-11T14:09:42;6.50;63.60
44729;DHT22;30457;53.590;9.922;2024-01-11T14:14:08;6.60;63.60
44729;DHT22;30457;53.590;9.922;2024-01-11T14:18:34;6.60;63.50
44729;DHT22;30457;53.590;9.922;2024-01-11T14:23:00;6.60;63.50
44729;DHT22;30457;53.590;9.922;2024-01-11T14:27:25;6.60;63.40
44729;DHT22;30457;53.590;9.922;2024-01-11T14:31:51;6.60;63.40
44729;DHT22;30457;53.590;9.922;2024-01-11T14:36:16;6.60;63.40
44729;DHT22;30457;53.590;9.922;2024-01-11T14:40:42;6.60;63.30
44729;DHT22;30457;53.590;9.922;2024-01-11T14:45:08;6.60;63.20
44729;DHT22;30457;53.590;9.922;2024-01-11T14:49:34;6.60;63.20
44729;DHT22;30457;53.590;9.922;2024-01-11T14:53:59;6.60;63.20
44729;DHT22;30457;53.590;9.922;2024-01-11T14:58:25;6.60;63.20
44729;DHT22;30457;53.590;9.922;2024-01-11T15:02:51;6.60;63.30
44729;DHT22;30457;53.590;9.922;2024-01-11T15:07:17;6.60;63.40
44729;DHT22;30457;53.590;9.922;2024-01-11T15:11:42;6.60;63.30
44729;DHT22;30457;53.590;9.922;2024-01-11T15:16:08;6.60;63.30
44729;DHT22;30457;53.590;9.922;2024-01-11T15:20:34;6.50;63.30
44729;DHT22;30457;53.590;9.922;2024-01-11T15:24:59;6.50;63.30
44729;DHT22;30457;53.590;9.922;2024-01-11T15:29:25;6.50;63.30
44729;DHT22;30457;53.590;9.922;2024-01-11T15:33:50;6.50;63.40
44729;DHT22;30457;53.590;9.922;2024-01-11T15:38:16;6.40;63.30
44729;DHT22;30457;53.590;9.922;2024-01-11T15:42:42;6.40;63.40
44729;DHT22;30457;53.590;9.922;2024-01-11T15:47:08;6.40;63.50
44729;DHT22;30457;53.590;9.922;2024-01-11T15:51:35;6.40;63.50
44729;DHT22;30457;53.590;9.922;2024-01-11T15:56:01;6.40;63.50
44729;DHT22;30457;53.590;9.922;2024-01-11T16:00:27;6.40;63.50
44729;DHT22;30457;53.590;9.922;2024-01-11T16:04:52;6.40;63.40
44729;DHT22;30457;53.590;9.922;2024-01-11T16:09:18;6.40;63.50
44729;DHT22;30457;53.590;9.922;2024-01-11T16:13:43;6.40;63.40
44729;DHT22;30457;53.590;9.922;2024-01-11T16:18:11;6.30;63.30
44729;DHT22;30457;53.590;9.922;2024-01-11T16:22:37;6.30;63.30
44729;DHT22;30457;53.590;9.922;2024-01-11T16:27:02;6.30;63.20
44729;DHT22;30457;53.590;9.922;2024-01-11T16:31:30;6.30;63.10
44729;DHT22;30457;53.590;9.922;2024-01-11T16:35:55;6.20;63.00
44729;DHT22;30457;53.590;9.922;2024-01-11T16:40:21;6.20;63.10
44729;DHT22;30457;53.590;9.922;2024-01-11T16:44:47;6.10;62.90
44729;DHT22;30457;53.590;9.922;2024-01-11T16:49:14;6.20;62.90
44729;DHT22;30457;53.590;9.922;2024-01-11T16:53:42;6.10;62.80
44729;DHT22;30457;53.590;9.922;2024-01-11T16:58:09;6.00;62.80
44729;DHT22;30457;53.590;9.922;2024-01-11T17:02:36;6.00;62.80
44729;DHT22;30457;53.590;9.922;2024-01-11T17:07:01;6.00;62.90
44729;DHT22;30457;53.590;9.922;2024-01-11T17:11:27;5.90;62.90
44729;DHT22;30457;53.590;9.922;2024-01-11T17:15:53;5.90;62.80
44729;DHT22;30457;53.590;9.922;2024-01-11T17:20:18;5.80;62.70
44729;DHT22;30457;53.590;9.922;2024-01-11T17:24:44;5.80;62.80
44729;DHT22;30457;53.590;9.922;2024-01-11T17:29:10;5.80;62.70
44729;DHT22;30457;53.590;9.922;2024-01-11T17:33:35;5.70;62.70
44729;DHT22;30457;53.590;9.922;2024-01-11T17:38:01;5.60;62.70
44729;DHT22;30457;53.590;9.922;2024-01-11T17:42:27;5.60;62.80
44729;DHT22;30457;53.590;9.922;2024-01-11T17:46:53;5.60;62.90
44729;DHT22;30457;53.590;9.922;2024-01-11T17:51:19;5.50;62.90
44729;DHT22;30457;53.590;9.922;2024-01-11T17:55:44;5.50;63.10
44729;DHT22;30457;53.590;9.922;2024-01-11T18:00:11;5.50;63.30
44729;DHT22;30457;53.590;9.922;2024-01-11T18:04:38;5.40;63.30
44729;DHT22;30457;53.590;9.922;2024-01-11T18:09:03;5.40;63.50
44729;DHT22;30457;53.590;9.922;2024-01-11T18:13:29;5.40;63.60
44729;DHT22;30457;53.590;9.922;2024-01-11T18:17:54;5.30;63.60
44729;DHT22;30457;53.590;9.922;2024-01-11T18:22:21;5.30;63.70
44729;DHT22;30457;53.590;9.922;2024-01-11T18:26:49;5.30;63.70
44729;DHT22;30457;53.590;9.922;2024-01-11T18:31:15;5.30;64.20
44729;DHT22;30457;53.590;9.922;2024-01-11T18:35:41;5.20;64.20
44729;DHT22;30457;53.590;9.922;2024-01-11T18:40:07;5.20;64.20
44729;DHT22;30457;53.590;9.922;2024-01-11T18:44:32;5.20;64.20
44729;DHT22;30457;53.590;9.922;2024-01-11T18:48:58;5.20;64.20
44729;DHT22;30457;53.590;9.922;2024-01-11T18:53:24;5.10;64.30
44729;DHT22;30457;53.590;9.922;2024-01-11T18:57:49;5.20;64.40
44729;DHT22;30457;53.590;9.922;2024-01-11T19:02:15;5.10;64.30
44729;DHT22;30457;53.590;9.922;2024-01-11T19:06:41;5.10;64.30
44729;DHT22;30457;53.590;9.922;2024-01-11T19:11:06;5.10;64.20
44729;DHT22;30457;53.590;9.922;2024-01-11T19:15:32;5.10;64.20
44729;DHT22;30457;53.590;9.922;2024-01-11T19:20:00;5.10;64.20
44729;DHT22;30457;53.590;9.922;2024-01-11T19:24:26;5.10;64.10
44729;DHT22;30457;53.590;9.922;2024-01-11T19:28:51;5.00;63.90
44729;DHT22;30457;53.590;9.922;2024-01-11T19:33:17;5.00;63.90
44729;DHT22;30457;53.590;9.922;2024-01-11T19:37:43;5.00;63.90
44729;DHT22;30457;53.590;9.922;2024-01-11T19:42:08;5.00;63.90
44729;DHT22;30457;53.590;9.922;2024-01-11T19:46:34;4.90;63.70
44729;DHT22;30457;53.590;9.922;2024-01-11T19:50:59;4.90;63.60
44729;DHT22;30457;53.590;9.922;2024-01-11T19:55:25;4.90;63.60
44729;DHT22;30457;53.590;9.922;2024-01-11T19:59:51;4.90;63.50
44729;DHT22;30457;53.590;9.922;2024-01-11T20:04:16;4.80;64.20
44729;DHT22;30457;53.590;9.922;2024-01-11T20:08:42;4.80;63.40
44729;DHT22;30457;53.590;9.922;2024-01-11T20:13:08;4.80;63.40
44729;DHT22;30457;53.590;9.922;2024-01-11T20:17:33;4.70;63.50
44729;DHT22;30457;53.590;9.922;2024-01-11T20:21:59;4.70;63.60
44729;DHT22;30457;53.590;9.922;2024-01-11T20:26:25;4.70;63.60
44729;DHT22;30457;53.590;9.922;2024-01-11T20:30:50;4.70;63.80
44729;DHT22;30457;53.590;9.922;2024-01-11T20:35:16;4.70;63.90
44729;DHT22;30457;53.590;9.922;2024-01-11T20:39:41;4.70;64.00
44729;DHT22;30457;53.590;9.922;2024-01-11T20:44:11;4.70;64.00
44729;DHT22;30457;53.590;9.922;2024-01-11T20:48:37;4.70;63.90
44729;DHT22;30457;53.590;9.922;2024-01-11T20:53:04;4.70;63.90
44729;DHT22;30457;53.590;9.922;2024-01-11T20:57:31;4.60;63.80
44729;DHT22;30457;53.590;9.922;2024-01-11T21:01:57;4.60;63.70
44729;DHT22;30457;53.590;9.922;2024-01-11T21:06:23;4.60;63.60
44729;DHT22;30457;53.590;9.922;2024-01-11T21:10:48;4.60;63.60
44729;DHT22;30457;53.590;9.922;2024-01-11T21:15:14;4.50;63.60
44729;DHT22;30457;53.590;9.922;2024-01-11T21:19:40;4.50;63.50
44729;DHT22;30457;53.590;9.922;2024-01-11T21:24:05;4.50;63.50
44729;DHT22;30457;53.590;9.922;2024-01-11T21:28:31;4.40;63.50
44729;DHT22;30457;53.590;9.922;2024-01-11T21:32:57;4.40;63.50
44729;DHT22;30457;53.590;9.922;2024-01-11T21:37:22;4.40;63.50
44729;DHT22;30457;53.590;9.922;2024-01-11T21:41:48;4.30;63.60
44729;DHT22;30457;53.590;9.922;2024-01-11T21:46:14;4.30;63.80
44729;DHT22;30457;53.590;9.922;2024-01-11T21:50:40;4.30;63.90
44729;DHT22;30457;53.590;9.922;2024-01-11T21:55:06;4.30;64.20
44729;DHT22;30457;53.590;9.922;2024-01-11T21:59:32;4.20;64.20
44729;DHT22;30457;53.590;9.922;2024-01-11T22:03:58;4.30;64.20
44729;DHT22;30457;53.590;9.922;2024-01-11T22:08:24;4.30;64.20
44729;DHT22;30457;53.590;9.922;2024-01-11T22:12:50;4.20;64.10
44729;DHT22;30457;53.590;9.922;2024-01-11T22:17:17;4.30;64.20
44729;DHT22;30457;53.590;9.922;2024-01-11T22:21:43;4.20;64.00
44729;DHT22;30457;53.590;9.922;2024-01-11T22:26:08;4.20;63.90
44729;DHT22;30457;53.590;9.922;2024-01-11T22:30:34;4.20;63.80
44729;DHT22;30457;53.590;9.922;2024-01-11T22:34:59;4.20;63.60
44729;DHT22;30457;53.590;9.922;2024-01-11T22:39:25;4.10;64.30
44729;DHT22;30457;53.590;9.922;2024-01-11T22:43:51;4.10;63.50
44729;DHT22;30457;53.590;9.922;2024-01-11T22:48:17;4.00;63.60
44729;DHT22;30457;53.590;9.922;2024-01-11T22:52:43;4.00;64.50
44729;DHT22;30457;53.590;9.922;2024-01-11T22:57:09;4.00;63.60
44729;DHT22;30457;53.590;9.922;2024-01-11T23:01:36;4.00;63.60
44729;DHT22;30457;53.590;9.922;2024-01-11T23:06:02;4.00;63.40
44729;DHT22;30457;53.590;9.922;2024-01-11T23:10:27;3.90;63.20
44729;DHT22;30457;53.590;9.922;2024-01-11T23:14:53;3.90;63.20
44729;DHT22;30457;53.590;9.922;2024-01-11T23:19:19;3.90;63.30
44729;DHT22;30457;53.590;9.922;2024-01-11T23:23:44;3.90;63.20
44729;DHT22;30457;53.590;9.922;2024-01-11T23:28:10;3.80;63.20
44729;DHT22;30457;53.590;9.922;2024-01-11T23:32:37;3.80;63.20
44729;DHT22;30457;53.590;9.922;2024-01-11T23:37:03;3.80;63.30
44729;DHT22;30457;53.590;9.922;2024-01-11T23:41:29;3.70;63.30
44729;DHT22;30457;53.590;9.922;2024-01-11T23:45:54;3.70;63.30
44729;DHT22;30457;53.590;9.922;2024-01-11T23:50:21;3.70;63.30
44729;DHT22;30457;53.590;9.922;2024-01-11T23:54:46;3.60;63.20
44729;DHT22;30457;53.590;9.922;2024-01-11T23:59:12;3.60;63.20
